Terminal Aerodrome Forecast
Issued by NWS Sterling, VA

Current Version | Previous Version | Text Only | Print | Product List | Glossary Off
Versions: 1 2 3 4 5 6 7 8 9 10 11 12 13 14 15 16 17 18 19 20 21 22 23 24 25 26 27 28 29 30 31 32

000
FTUS41 KLWX 011146
TAFDCA
TAF
KDCA 011146Z 0112/0212 VRB05KT P6SM BKN007 BKN100
     FM011400 26006KT P6SM SCT050
     FM012000 26008KT P6SM BKN050
     FM020000 VRB03KT P6SM SCT090=

USA.gov is the U.S. government's official web portal to all federal, state and local government web resources and services.